sensor_id;sensor_type;location;lat;lon;timestamp;P1;durP1;ratioP1;P2;durP2;ratioP2
52266;SDS011;38223;50.940;4.034;2023-09-19T00:00:58;13.65;;;3.20;;
52266;SDS011;38223;50.940;4.034;2023-09-19T00:03:28;12.95;;;2.85;;
52266;SDS011;38223;50.940;4.034;2023-09-19T00:05:58;9.55;;;2.98;;
52266;SDS011;38223;50.940;4.034;2023-09-19T00:08:29;14.13;;;2.83;;
52266;SDS011;38223;50.940;4.034;2023-09-19T00:13:28;12.13;;;2.83;;
52266;SDS011;38223;50.940;4.034;2023-09-19T00:16:07;9.15;;;2.87;;
52266;SDS011;38223;50.940;4.034;2023-09-19T00:18:41;11.50;;;2.70;;
52266;SDS011;38223;50.940;4.034;2023-09-19T00:21:11;10.28;;;2.80;;
52266;SDS011;38223;50.940;4.034;2023-09-19T00:23:42;12.00;;;2.83;;
52266;SDS011;38223;50.940;4.034;2023-09-19T00:26:14;11.25;;;2.30;;
52266;SDS011;38223;50.940;4.034;2023-09-19T00:28:44;8.95;;;2.60;;
52266;SDS011;38223;50.940;4.034;2023-09-19T00:31:17;8.53;;;2.33;;
52266;SDS011;38223;50.940;4.034;2023-09-19T00:33:52;13.08;;;2.70;;
52266;SDS011;38223;50.940;4.034;2023-09-19T00:36:26;8.30;;;2.52;;
52266;SDS011;38223;50.940;4.034;2023-09-19T00:38:59;16.37;;;2.62;;
52266;SDS011;38223;50.940;4.034;2023-09-19T00:41:34;8.05;;;2.35;;
52266;SDS011;38223;50.940;4.034;2023-09-19T00:44:06;13.93;;;2.72;;
52266;SDS011;38223;50.940;4.034;2023-09-19T00:46:38;9.45;;;2.00;;
52266;SDS011;38223;50.940;4.034;2023-09-19T00:49:07;13.53;;;2.50;;
52266;SDS011;38223;50.940;4.034;2023-09-19T00:51:43;11.57;;;2.40;;
52266;SDS011;38223;50.940;4.034;2023-09-19T00:54:17;10.30;;;2.17;;
52266;SDS011;38223;50.940;4.034;2023-09-19T00:56:47;11.60;;;2.95;;
52266;SDS011;38223;50.940;4.034;2023-09-19T00:59:20;7.08;;;2.05;;
52266;SDS011;38223;50.940;4.034;2023-09-19T01:01:48;9.85;;;2.40;;
52266;SDS011;38223;50.940;4.034;2023-09-19T01:04:20;11.70;;;2.58;;
52266;SDS011;38223;50.940;4.034;2023-09-19T01:06:50;12.03;;;2.87;;
52266;SDS011;38223;50.940;4.034;2023-09-19T01:09:19;9.48;;;2.30;;
52266;SDS011;38223;50.940;4.034;2023-09-19T01:11:48;10.20;;;2.60;;
52266;SDS011;38223;50.940;4.034;2023-09-19T01:14:31;8.25;;;2.95;;
52266;SDS011;38223;50.940;4.034;2023-09-19T01:17:52;10.53;;;3.20;;
52266;SDS011;38223;50.940;4.034;2023-09-19T01:19:50;9.58;;;2.90;;
52266;SDS011;38223;50.940;4.034;2023-09-19T01:25:20;7.80;;;2.70;;
52266;SDS011;38223;50.940;4.034;2023-09-19T01:27:53;9.23;;;2.60;;
52266;SDS011;38223;50.940;4.034;2023-09-19T01:30:27;8.70;;;2.42;;
52266;SDS011;38223;50.940;4.034;2023-09-19T01:32:59;13.15;;;3.30;;
52266;SDS011;38223;50.940;4.034;2023-09-19T01:35:32;11.25;;;2.55;;
52266;SDS011;38223;50.940;4.034;2023-09-19T01:38:00;12.43;;;2.65;;
52266;SDS011;38223;50.940;4.034;2023-09-19T01:40:29;12.43;;;3.00;;
52266;SDS011;38223;50.940;4.034;2023-09-19T01:43:12;9.68;;;2.42;;
52266;SDS011;38223;50.940;4.034;2023-09-19T01:45:52;11.97;;;2.40;;
52266;SDS011;38223;50.940;4.034;2023-09-19T01:51:13;11.60;;;2.83;;
52266;SDS011;38223;50.940;4.034;2023-09-19T01:54:03;8.55;;;2.58;;
52266;SDS011;38223;50.940;4.034;2023-09-19T01:59:16;10.32;;;2.45;;
52266;SDS011;38223;50.940;4.034;2023-09-19T02:01:46;8.45;;;2.35;;
52266;SDS011;38223;50.940;4.034;2023-09-19T02:04:17;9.20;;;2.70;;
52266;SDS011;38223;50.940;4.034;2023-09-19T02:06:47;10.15;;;2.50;;
52266;SDS011;38223;50.940;4.034;2023-09-19T02:09:19;10.20;;;2.83;;
52266;SDS011;38223;50.940;4.034;2023-09-19T02:11:51;11.00;;;2.80;;
52266;SDS011;38223;50.940;4.034;2023-09-19T02:14:21;7.35;;;2.42;;
52266;SDS011;38223;50.940;4.034;2023-09-19T02:16:50;12.58;;;2.77;;
52266;SDS011;38223;50.940;4.034;2023-09-19T02:19:19;17.87;;;3.00;;
52266;SDS011;38223;50.940;4.034;2023-09-19T02:21:49;11.03;;;3.00;;
52266;SDS011;38223;50.940;4.034;2023-09-19T02:24:18;13.03;;;2.52;;
52266;SDS011;38223;50.940;4.034;2023-09-19T02:26:49;12.58;;;3.30;;
52266;SDS011;38223;50.940;4.034;2023-09-19T02:29:19;15.85;;;3.20;;
52266;SDS011;38223;50.940;4.034;2023-09-19T02:34:16;12.03;;;2.47;;
52266;SDS011;38223;50.940;4.034;2023-09-19T02:36:45;13.60;;;2.92;;
52266;SDS011;38223;50.940;4.034;2023-09-19T02:39:15;14.28;;;2.98;;
52266;SDS011;38223;50.940;4.034;2023-09-19T02:41:47;10.43;;;2.67;;
52266;SDS011;38223;50.940;4.034;2023-09-19T02:44:20;11.30;;;2.67;;
52266;SDS011;38223;50.940;4.034;2023-09-19T02:46:52;7.70;;;2.98;;
52266;SDS011;38223;50.940;4.034;2023-09-19T02:49:21;9.53;;;2.87;;
52266;SDS011;38223;50.940;4.034;2023-09-19T02:51:49;9.33;;;2.27;;
52266;SDS011;38223;50.940;4.034;2023-09-19T02:54:19;8.83;;;2.58;;
52266;SDS011;38223;50.940;4.034;2023-09-19T02:56:49;8.15;;;2.80;;
52266;SDS011;38223;50.940;4.034;2023-09-19T02:59:19;15.32;;;3.02;;
52266;SDS011;38223;50.940;4.034;2023-09-19T03:01:47;11.30;;;2.60;;
52266;SDS011;38223;50.940;4.034;2023-09-19T03:04:15;10.60;;;2.80;;
52266;SDS011;38223;50.940;4.034;2023-09-19T03:06:47;8.00;;;2.40;;
52266;SDS011;38223;50.940;4.034;2023-09-19T03:09:20;9.28;;;2.08;;
52266;SDS011;38223;50.940;4.034;2023-09-19T03:11:49;11.48;;;2.65;;
52266;SDS011;38223;50.940;4.034;2023-09-19T03:14:19;9.43;;;2.08;;
52266;SDS011;38223;50.940;4.034;2023-09-19T03:16:54;11.50;;;2.50;;
52266;SDS011;38223;50.940;4.034;2023-09-19T03:19:21;7.20;;;2.10;;
52266;SDS011;38223;50.940;4.034;2023-09-19T03:21:52;10.05;;;2.17;;
52266;SDS011;38223;50.940;4.034;2023-09-19T03:24:19;7.78;;;2.40;;
52266;SDS011;38223;50.940;4.034;2023-09-19T03:26:53;9.35;;;2.30;;
52266;SDS011;38223;50.940;4.034;2023-09-19T03:29:27;9.38;;;2.08;;
52266;SDS011;38223;50.940;4.034;2023-09-19T03:32:01;7.25;;;2.27;;
52266;SDS011;38223;50.940;4.034;2023-09-19T03:34:35;9.55;;;2.27;;
52266;SDS011;38223;50.940;4.034;2023-09-19T03:37:14;9.50;;;2.45;;
52266;SDS011;38223;50.940;4.034;2023-09-19T03:39:43;7.10;;;2.42;;
52266;SDS011;38223;50.940;4.034;2023-09-19T03:42:12;9.13;;;2.30;;
52266;SDS011;38223;50.940;4.034;2023-09-19T03:44:41;9.40;;;2.65;;
52266;SDS011;38223;50.940;4.034;2023-09-19T03:47:13;12.73;;;3.45;;
52266;SDS011;38223;50.940;4.034;2023-09-19T03:49:44;14.47;;;2.92;;
52266;SDS011;38223;50.940;4.034;2023-09-19T03:52:13;11.53;;;2.87;;
52266;SDS011;38223;50.940;4.034;2023-09-19T03:54:45;8.73;;;2.47;;
52266;SDS011;38223;50.940;4.034;2023-09-19T03:57:15;12.75;;;2.92;;
52266;SDS011;38223;50.940;4.034;2023-09-19T03:59:47;13.13;;;2.70;;
52266;SDS011;38223;50.940;4.034;2023-09-19T04:02:18;13.10;;;3.45;;
52266;SDS011;38223;50.940;4.034;2023-09-19T04:04:50;12.58;;;2.55;;
52266;SDS011;38223;50.940;4.034;2023-09-19T04:07:24;21.80;;;3.75;;
52266;SDS011;38223;50.940;4.034;2023-09-19T04:09:54;14.78;;;3.25;;
52266;SDS011;38223;50.940;4.034;2023-09-19T04:12:27;9.88;;;3.20;;
52266;SDS011;38223;50.940;4.034;2023-09-19T04:14:57;10.40;;;3.20;;
52266;SDS011;38223;50.940;4.034;2023-09-19T04:17:31;15.13;;;3.33;;
52266;SDS011;38223;50.940;4.034;2023-09-19T04:20:03;11.10;;;2.52;;
52266;SDS011;38223;50.940;4.034;2023-09-19T04:22:37;11.35;;;2.85;;
52266;SDS011;38223;50.940;4.034;2023-09-19T04:25:06;14.80;;;2.77;;
52266;SDS011;38223;50.940;4.034;2023-09-19T04:27:37;19.23;;;3.17;;
52266;SDS011;38223;50.940;4.034;2023-09-19T04:30:07;11.73;;;3.25;;
52266;SDS011;38223;50.940;4.034;2023-09-19T04:32:41;16.45;;;3.60;;
52266;SDS011;38223;50.940;4.034;2023-09-19T04:35:11;16.15;;;2.80;;
52266;SDS011;38223;50.940;4.034;2023-09-19T04:37:43;11.48;;;2.45;;
52266;SDS011;38223;50.940;4.034;2023-09-19T04:40:18;15.10;;;2.98;;
52266;SDS011;38223;50.940;4.034;2023-09-19T04:42:56;11.40;;;2.85;;
52266;SDS011;38223;50.940;4.034;2023-09-19T04:45:27;11.43;;;2.62;;
52266;SDS011;38223;50.940;4.034;2023-09-19T04:47:59;17.27;;;3.67;;
52266;SDS011;38223;50.940;4.034;2023-09-19T04:50:28;13.50;;;2.65;;
52266;SDS011;38223;50.940;4.034;2023-09-19T04:53:02;14.00;;;2.87;;
52266;SDS011;38223;50.940;4.034;2023-09-19T04:55:30;9.78;;;2.77;;
52266;SDS011;38223;50.940;4.034;2023-09-19T04:58:01;13.90;;;3.08;;
52266;SDS011;38223;50.940;4.034;2023-09-19T05:00:32;12.88;;;3.10;;
52266;SDS011;38223;50.940;4.034;2023-09-19T05:03:06;16.70;;;3.12;;
52266;SDS011;38223;50.940;4.034;2023-09-19T05:05:39;10.72;;;2.30;;
52266;SDS011;38223;50.940;4.034;2023-09-19T05:08:08;13.37;;;2.50;;
52266;SDS011;38223;50.940;4.034;2023-09-19T05:10:39;12.13;;;2.35;;
52266;SDS011;38223;50.940;4.034;2023-09-19T05:13:11;14.63;;;2.98;;
52266;SDS011;38223;50.940;4.034;2023-09-19T05:15:45;13.43;;;2.80;;
52266;SDS011;38223;50.940;4.034;2023-09-19T05:18:16;10.78;;;2.90;;
52266;SDS011;38223;50.940;4.034;2023-09-19T05:20:46;11.03;;;2.80;;
52266;SDS011;38223;50.940;4.034;2023-09-19T05:23:18;15.20;;;3.17;;
52266;SDS011;38223;50.940;4.034;2023-09-19T05:25:48;10.03;;;2.60;;
52266;SDS011;38223;50.940;4.034;2023-09-19T05:28:20;12.98;;;2.72;;
52266;SDS011;38223;50.940;4.034;2023-09-19T05:30:52;11.48;;;2.42;;
52266;SDS011;38223;50.940;4.034;2023-09-19T05:33:25;20.17;;;3.20;;
52266;SDS011;38223;50.940;4.034;2023-09-19T05:35:58;13.30;;;2.30;;
52266;SDS011;38223;50.940;4.034;2023-09-19T05:38:28;13.35;;;2.87;;
52266;SDS011;38223;50.940;4.034;2023-09-19T05:40:58;24.00;;;3.10;;
52266;SDS011;38223;50.940;4.034;2023-09-19T05:43:28;21.60;;;3.05;;
52266;SDS011;38223;50.940;4.034;2023-09-19T05:45:59;14.40;;;3.35;;
52266;SDS011;38223;50.940;4.034;2023-09-19T05:48:31;14.00;;;2.47;;
52266;SDS011;38223;50.940;4.034;2023-09-19T05:51:04;10.65;;;2.95;;
52266;SDS011;38223;50.940;4.034;2023-09-19T05:53:34;9.60;;;2.20;;
52266;SDS011;38223;50.940;4.034;2023-09-19T05:56:06;15.65;;;3.15;;
52266;SDS011;38223;50.940;4.034;2023-09-19T05:58:35;11.53;;;2.58;;
52266;SDS011;38223;50.940;4.034;2023-09-19T06:01:08;15.65;;;3.77;;
52266;SDS011;38223;50.940;4.034;2023-09-19T06:03:40;13.08;;;2.52;;
52266;SDS011;38223;50.940;4.034;2023-09-19T06:06:08;13.70;;;3.33;;
52266;SDS011;38223;50.940;4.034;2023-09-19T06:08:38;10.53;;;2.15;;
52266;SDS011;38223;50.940;4.034;2023-09-19T06:11:10;8.30;;;2.37;;
52266;SDS011;38223;50.940;4.034;2023-09-19T06:13:38;18.42;;;2.75;;
52266;SDS011;38223;50.940;4.034;2023-09-19T06:16:06;12.28;;;2.70;;
52266;SDS011;38223;50.940;4.034;2023-09-19T06:18:35;12.43;;;2.77;;
52266;SDS011;38223;50.940;4.034;2023-09-19T06:21:05;15.53;;;2.83;;
52266;SDS011;38223;50.940;4.034;2023-09-19T06:23:39;12.30;;;2.62;;
52266;SDS011;38223;50.940;4.034;2023-09-19T06:26:15;14.58;;;3.02;;
52266;SDS011;38223;50.940;4.034;2023-09-19T06:28:45;11.18;;;2.50;;
52266;SDS011;38223;50.940;4.034;2023-09-19T06:31:16;11.60;;;2.58;;
52266;SDS011;38223;50.940;4.034;2023-09-19T06:33:52;11.60;;;2.35;;
52266;SDS011;38223;50.940;4.034;2023-09-19T06:36:26;16.65;;;3.25;;
52266;SDS011;38223;50.940;4.034;2023-09-19T06:39:02;7.62;;;2.45;;
52266;SDS011;38223;50.940;4.034;2023-09-19T06:41:33;7.83;;;3.00;;
52266;SDS011;38223;50.940;4.034;2023-09-19T06:44:04;12.75;;;2.50;;
52266;SDS011;38223;50.940;4.034;2023-09-19T06:46:34;12.15;;;2.58;;
52266;SDS011;38223;50.940;4.034;2023-09-19T06:49:05;8.48;;;2.65;;
52266;SDS011;38223;50.940;4.034;2023-09-19T06:51:39;10.40;;;2.52;;
52266;SDS011;38223;50.940;4.034;2023-09-19T06:54:10;9.65;;;2.80;;
52266;SDS011;38223;50.940;4.034;2023-09-19T06:56:44;13.22;;;2.08;;
52266;SDS011;38223;50.940;4.034;2023-09-19T06:59:15;9.93;;;2.40;;
52266;SDS011;38223;50.940;4.034;2023-09-19T07:01:46;14.53;;;2.72;;
52266;SDS011;38223;50.940;4.034;2023-09-19T07:04:17;8.75;;;2.27;;
52266;SDS011;38223;50.940;4.034;2023-09-19T07:06:51;12.47;;;2.62;;
52266;SDS011;38223;50.940;4.034;2023-09-19T07:09:22;12.00;;;2.05;;
52266;SDS011;38223;50.940;4.034;2023-09-19T07:11:54;11.22;;;2.55;;
52266;SDS011;38223;50.940;4.034;2023-09-19T07:14:29;17.50;;;2.87;;
52266;SDS011;38223;50.940;4.034;2023-09-19T07:16:59;10.95;;;2.25;;
52266;SDS011;38223;50.940;4.034;2023-09-19T07:19:40;12.90;;;2.50;;
52266;SDS011;38223;50.940;4.034;2023-09-19T07:22:10;11.78;;;2.30;;
52266;SDS011;38223;50.940;4.034;2023-09-19T07:24:43;9.88;;;2.95;;
52266;SDS011;38223;50.940;4.034;2023-09-19T07:27:14;13.62;;;3.00;;
52266;SDS011;38223;50.940;4.034;2023-09-19T07:29:43;10.25;;;2.22;;
52266;SDS011;38223;50.940;4.034;2023-09-19T07:34:46;9.90;;;2.47;;
52266;SDS011;38223;50.940;4.034;2023-09-19T07:37:16;10.35;;;2.42;;
52266;SDS011;38223;50.940;4.034;2023-09-19T07:39:44;13.88;;;2.72;;
52266;SDS011;38223;50.940;4.034;2023-09-19T07:42:15;12.65;;;2.83;;
52266;SDS011;38223;50.940;4.034;2023-09-19T07:44:46;12.63;;;2.47;;
52266;SDS011;38223;50.940;4.034;2023-09-19T07:47:16;15.58;;;2.95;;
52266;SDS011;38223;50.940;4.034;2023-09-19T07:49:55;15.53;;;2.58;;
52266;SDS011;38223;50.940;4.034;2023-09-19T07:52:25;12.37;;;2.52;;
52266;SDS011;38223;50.940;4.034;2023-09-19T07:54:56;9.15;;;2.22;;
52266;SDS011;38223;50.940;4.034;2023-09-19T07:57:29;9.75;;;2.25;;
52266;SDS011;38223;50.940;4.034;2023-09-19T08:00:00;9.95;;;2.33;;
52266;SDS011;38223;50.940;4.034;2023-09-19T08:02:39;15.65;;;2.72;;
52266;SDS011;38223;50.940;4.034;2023-09-19T08:05:11;12.33;;;2.85;;
52266;SDS011;38223;50.940;4.034;2023-09-19T08:07:48;12.07;;;2.75;;
52266;SDS011;38223;50.940;4.034;2023-09-19T08:10:19;9.85;;;2.65;;
52266;SDS011;38223;50.940;4.034;2023-09-19T08:12:50;14.28;;;2.87;;
52266;SDS011;38223;50.940;4.034;2023-09-19T08:15:20;9.63;;;2.37;;
52266;SDS011;38223;50.940;4.034;2023-09-19T08:17:52;11.55;;;2.30;;
52266;SDS011;38223;50.940;4.034;2023-09-19T08:20:23;14.90;;;3.00;;
52266;SDS011;38223;50.940;4.034;2023-09-19T08:22:54;10.78;;;2.33;;
52266;SDS011;38223;50.940;4.034;2023-09-19T08:25:24;10.35;;;2.52;;
52266;SDS011;38223;50.940;4.034;2023-09-19T08:27:55;13.18;;;3.17;;
52266;SDS011;38223;50.940;4.034;2023-09-19T08:30:25;15.90;;;2.55;;
52266;SDS011;38223;50.940;4.034;2023-09-19T08:32:59;15.65;;;2.92;;
52266;SDS011;38223;50.940;4.034;2023-09-19T08:35:36;14.75;;;2.95;;
52266;SDS011;38223;50.940;4.034;2023-09-19T08:38:07;18.50;;;2.77;;
52266;SDS011;38223;50.940;4.034;2023-09-19T08:40:40;11.28;;;2.60;;
52266;SDS011;38223;50.940;4.034;2023-09-19T08:43:13;13.38;;;2.67;;
52266;SDS011;38223;50.940;4.034;2023-09-19T08:45:46;12.80;;;2.95;;
52266;SDS011;38223;50.940;4.034;2023-09-19T08:48:17;11.30;;;2.15;;
52266;SDS011;38223;50.940;4.034;2023-09-19T08:56:20;12.25;;;2.27;;
52266;SDS011;38223;50.940;4.034;2023-09-19T08:58:53;9.35;;;2.42;;
52266;SDS011;38223;50.940;4.034;2023-09-19T09:01:31;14.00;;;3.12;;
52266;SDS011;38223;50.940;4.034;2023-09-19T09:04:01;13.72;;;2.75;;
52266;SDS011;38223;50.940;4.034;2023-09-19T09:06:35;16.00;;;2.77;;
52266;SDS011;38223;50.940;4.034;2023-09-19T09:09:05;15.35;;;3.45;;
52266;SDS011;38223;50.940;4.034;2023-09-19T09:11:35;12.15;;;2.55;;
52266;SDS011;38223;50.940;4.034;2023-09-19T09:14:07;9.43;;;1.75;;
52266;SDS011;38223;50.940;4.034;2023-09-19T09:16:39;10.53;;;2.20;;
52266;SDS011;38223;50.940;4.034;2023-09-19T09:19:09;8.58;;;2.52;;
52266;SDS011;38223;50.940;4.034;2023-09-19T09:21:43;10.20;;;2.30;;
52266;SDS011;38223;50.940;4.034;2023-09-19T09:24:33;10.45;;;2.25;;
52266;SDS011;38223;50.940;4.034;2023-09-19T09:27:07;7.90;;;1.92;;
52266;SDS011;38223;50.940;4.034;2023-09-19T09:29:45;14.75;;;2.45;;
52266;SDS011;38223;50.940;4.034;2023-09-19T09:32:22;8.95;;;1.80;;
52266;SDS011;38223;50.940;4.034;2023-09-19T09:35:07;6.10;;;1.60;;
52266;SDS011;38223;50.940;4.034;2023-09-19T09:37:41;12.73;;;1.55;;
52266;SDS011;38223;50.940;4.034;2023-09-19T09:40:18;7.53;;;1.95;;
52266;SDS011;38223;50.940;4.034;2023-09-19T09:42:50;9.68;;;2.08;;
52266;SDS011;38223;50.940;4.034;2023-09-19T09:45:23;5.30;;;1.55;;
52266;SDS011;38223;50.940;4.034;2023-09-19T09:48:04;7.20;;;1.80;;
52266;SDS011;38223;50.940;4.034;2023-09-19T09:50:35;8.33;;;1.60;;
52266;SDS011;38223;50.940;4.034;2023-09-19T09:53:27;8.63;;;1.52;;
52266;SDS011;38223;50.940;4.034;2023-09-19T09:55:57;7.62;;;2.47;;
52266;SDS011;38223;50.940;4.034;2023-09-19T09:58:30;7.37;;;2.02;;
52266;SDS011;38223;50.940;4.034;2023-09-19T10:01:03;5.42;;;1.67;;
52266;SDS011;38223;50.940;4.034;2023-09-19T10:03:36;5.90;;;1.65;;
52266;SDS011;38223;50.940;4.034;2023-09-19T10:06:08;7.87;;;2.02;;
52266;SDS011;38223;50.940;4.034;2023-09-19T10:11:44;5.70;;;2.00;;
52266;SDS011;38223;50.940;4.034;2023-09-19T10:14:18;6.83;;;1.30;;
52266;SDS011;38223;50.940;4.034;2023-09-19T10:16:48;7.42;;;1.40;;
52266;SDS011;38223;50.940;4.034;2023-09-19T10:19:21;4.70;;;1.30;;
52266;SDS011;38223;50.940;4.034;2023-09-19T10:21:59;7.05;;;1.50;;
52266;SDS011;38223;50.940;4.034;2023-09-19T10:24:28;8.43;;;1.62;;
52266;SDS011;38223;50.940;4.034;2023-09-19T10:26:57;4.20;;;1.05;;
52266;SDS011;38223;50.940;4.034;2023-09-19T10:29:29;6.08;;;1.70;;
52266;SDS011;38223;50.940;4.034;2023-09-19T10:32:03;9.10;;;1.32;;
52266;SDS011;38223;50.940;4.034;2023-09-19T10:34:40;6.47;;;1.62;;
52266;SDS011;38223;50.940;4.034;2023-09-19T10:37:08;3.40;;;1.25;;
52266;SDS011;38223;50.940;4.034;2023-09-19T10:39:45;8.20;;;1.27;;
52266;SDS011;38223;50.940;4.034;2023-09-19T10:42:18;4.35;;;1.10;;
52266;SDS011;38223;50.940;4.034;2023-09-19T10:44:53;5.30;;;1.05;;
52266;SDS011;38223;50.940;4.034;2023-09-19T10:47:23;4.40;;;1.32;;
52266;SDS011;38223;50.940;4.034;2023-09-19T10:49:51;10.45;;;1.45;;
52266;SDS011;38223;50.940;4.034;2023-09-19T10:52:26;5.50;;;1.15;;
52266;SDS011;38223;50.940;4.034;2023-09-19T10:54:59;5.33;;;1.30;;
52266;SDS011;38223;50.940;4.034;2023-09-19T10:57:31;4.83;;;0.90;;
52266;SDS011;38223;50.940;4.034;2023-09-19T11:00:06;6.37;;;1.30;;
52266;SDS011;38223;50.940;4.034;2023-09-19T11:05:41;6.30;;;1.10;;
52266;SDS011;38223;50.940;4.034;2023-09-19T11:08:12;5.55;;;0.80;;
52266;SDS011;38223;50.940;4.034;2023-09-19T11:10:45;3.30;;;0.90;;
52266;SDS011;38223;50.940;4.034;2023-09-19T11:13:30;2.83;;;0.80;;
52266;SDS011;38223;50.940;4.034;2023-09-19T11:16:05;4.70;;;0.90;;
52266;SDS011;38223;50.940;4.034;2023-09-19T11:27:09;7.20;;;1.45;;
52266;SDS011;38223;50.940;4.034;2023-09-19T11:29:42;5.35;;;1.30;;
52266;SDS011;38223;50.940;4.034;2023-09-19T11:32:15;3.05;;;0.93;;
52266;SDS011;38223;50.940;4.034;2023-09-19T11:34:45;3.20;;;0.98;;
52266;SDS011;38223;50.940;4.034;2023-09-19T11:40:07;6.05;;;1.10;;
52266;SDS011;38223;50.940;4.034;2023-09-19T11:42:44;7.62;;;1.00;;
52266;SDS011;38223;50.940;4.034;2023-09-19T11:48:16;4.15;;;1.05;;
52266;SDS011;38223;50.940;4.034;2023-09-19T11:50:49;3.83;;;0.98;;
52266;SDS011;38223;50.940;4.034;2023-09-19T11:53:24;4.65;;;1.05;;
52266;SDS011;38223;50.940;4.034;2023-09-19T11:55:56;4.28;;;0.98;;
52266;SDS011;38223;50.940;4.034;2023-09-19T11:58:28;3.55;;;0.75;;
52266;SDS011;38223;50.940;4.034;2023-09-19T12:01:07;2.45;;;0.80;;
52266;SDS011;38223;50.940;4.034;2023-09-19T12:03:42;2.90;;;0.90;;
52266;SDS011;38223;50.940;4.034;2023-09-19T12:06:14;3.30;;;1.10;;
52266;SDS011;38223;50.940;4.034;2023-09-19T12:08:47;5.20;;;1.05;;
52266;SDS011;38223;50.940;4.034;2023-09-19T12:11:18;6.80;;;0.90;;
52266;SDS011;38223;50.940;4.034;2023-09-19T12:13:48;3.55;;;1.30;;
52266;SDS011;38223;50.940;4.034;2023-09-19T12:16:19;5.28;;;0.98;;
52266;SDS011;38223;50.940;4.034;2023-09-19T12:18:50;4.20;;;1.25;;
52266;SDS011;38223;50.940;4.034;2023-09-19T12:21:27;4.40;;;1.10;;
52266;SDS011;38223;50.940;4.034;2023-09-19T12:23:59;4.08;;;1.02;;
52266;SDS011;38223;50.940;4.034;2023-09-19T12:26:46;5.22;;;1.05;;
52266;SDS011;38223;50.940;4.034;2023-09-19T12:29:18;8.03;;;1.07;;
52266;SDS011;38223;50.940;4.034;2023-09-19T12:31:53;4.05;;;1.20;;
52266;SDS011;38223;50.940;4.034;2023-09-19T12:34:26;6.53;;;1.35;;
52266;SDS011;38223;50.940;4.034;2023-09-19T12:39:39;9.13;;;1.52;;
52266;SDS011;38223;50.940;4.034;2023-09-19T12:42:15;4.28;;;1.30;;
52266;SDS011;38223;50.940;4.034;2023-09-19T12:44:54;2.77;;;1.10;;
52266;SDS011;38223;50.940;4.034;2023-09-19T12:47:24;7.42;;;1.25;;
52266;SDS011;38223;50.940;4.034;2023-09-19T12:50:07;3.85;;;1.40;;
52266;SDS011;38223;50.940;4.034;2023-09-19T12:52:48;5.03;;;1.07;;
52266;SDS011;38223;50.940;4.034;2023-09-19T12:55:26;10.60;;;1.27;;
52266;SDS011;38223;50.940;4.034;2023-09-19T13:00:44;7.62;;;1.40;;
52266;SDS011;38223;50.940;4.034;2023-09-19T13:03:19;5.85;;;1.27;;
52266;SDS011;38223;50.940;4.034;2023-09-19T13:05:55;8.50;;;1.60;;
52266;SDS011;38223;50.940;4.034;2023-09-19T13:08:33;9.65;;;1.65;;
52266;SDS011;38223;50.940;4.034;2023-09-19T13:11:13;5.33;;;1.42;;
52266;SDS011;38223;50.940;4.034;2023-09-19T13:16:21;6.42;;;1.22;;
52266;SDS011;38223;50.940;4.034;2023-09-19T13:18:51;3.83;;;1.20;;
52266;SDS011;38223;50.940;4.034;2023-09-19T13:21:29;3.33;;;1.05;;
52266;SDS011;38223;50.940;4.034;2023-09-19T13:26:59;9.35;;;1.77;;
52266;SDS011;38223;50.940;4.034;2023-09-19T13:29:34;13.00;;;4.40;;
52266;SDS011;38223;50.940;4.034;2023-09-19T13:32:02;5.75;;;1.32;;
52266;SDS011;38223;50.940;4.034;2023-09-19T13:34:33;3.40;;;1.20;;
52266;SDS011;38223;50.940;4.034;2023-09-19T13:37:03;4.72;;;1.05;;
52266;SDS011;38223;50.940;4.034;2023-09-19T13:39:35;9.28;;;1.98;;
52266;SDS011;38223;50.940;4.034;2023-09-19T13:42:06;5.37;;;1.35;;
52266;SDS011;38223;50.940;4.034;2023-09-19T13:44:38;8.30;;;1.40;;
52266;SDS011;38223;50.940;4.034;2023-09-19T13:47:10;5.58;;;1.10;;
52266;SDS011;38223;50.940;4.034;2023-09-19T13:49:41;4.78;;;1.02;;
52266;SDS011;38223;50.940;4.034;2023-09-19T13:52:08;4.30;;;1.55;;
52266;SDS011;38223;50.940;4.034;2023-09-19T13:54:38;4.72;;;1.40;;
52266;SDS011;38223;50.940;4.034;2023-09-19T13:57:07;4.78;;;1.25;;
52266;SDS011;38223;50.940;4.034;2023-09-19T13:59:38;5.25;;;1.35;;
52266;SDS011;38223;50.940;4.034;2023-09-19T14:02:07;2.90;;;1.37;;
52266;SDS011;38223;50.940;4.034;2023-09-19T14:04:38;4.08;;;1.15;;
52266;SDS011;38223;50.940;4.034;2023-09-19T14:07:06;5.97;;;1.22;;
52266;SDS011;38223;50.940;4.034;2023-09-19T14:09:33;7.72;;;1.57;;
52266;SDS011;38223;50.940;4.034;2023-09-19T14:12:08;6.50;;;1.57;;
52266;SDS011;38223;50.940;4.034;2023-09-19T14:14:39;5.35;;;1.62;;
52266;SDS011;38223;50.940;4.034;2023-09-19T14:17:14;3.65;;;1.30;;
52266;SDS011;38223;50.940;4.034;2023-09-19T14:19:44;2.58;;;1.10;;
52266;SDS011;38223;50.940;4.034;2023-09-19T14:22:12;4.78;;;1.20;;
52266;SDS011;38223;50.940;4.034;2023-09-19T14:24:44;3.08;;;1.30;;
52266;SDS011;38223;50.940;4.034;2023-09-19T14:29:40;3.22;;;1.27;;
52266;SDS011;38223;50.940;4.034;2023-09-19T14:32:09;9.08;;;1.30;;
52266;SDS011;38223;50.940;4.034;2023-09-19T14:34:43;7.75;;;2.37;;
52266;SDS011;38223;50.940;4.034;2023-09-19T14:39:42;3.67;;;1.40;;
52266;SDS011;38223;50.940;4.034;2023-09-19T14:42:15;3.92;;;1.42;;
52266;SDS011;38223;50.940;4.034;2023-09-19T14:44:43;5.05;;;1.42;;
52266;SDS011;38223;50.940;4.034;2023-09-19T14:47:14;5.50;;;1.67;;
52266;SDS011;38223;50.940;4.034;2023-09-19T14:49:42;6.47;;;1.65;;
52266;SDS011;38223;50.940;4.034;2023-09-19T14:52:11;5.65;;;2.02;;
52266;SDS011;38223;50.940;4.034;2023-09-19T14:54:41;4.87;;;1.25;;
52266;SDS011;38223;50.940;4.034;2023-09-19T14:57:10;10.38;;;1.55;;
52266;SDS011;38223;50.940;4.034;2023-09-19T14:59:40;4.37;;;1.40;;
52266;SDS011;38223;50.940;4.034;2023-09-19T15:02:09;7.37;;;1.95;;
52266;SDS011;38223;50.940;4.034;2023-09-19T15:04:37;4.75;;;1.40;;
52266;SDS011;38223;50.940;4.034;2023-09-19T15:07:06;6.22;;;1.90;;
52266;SDS011;38223;50.940;4.034;2023-09-19T15:09:38;6.60;;;1.47;;
52266;SDS011;38223;50.940;4.034;2023-09-19T15:12:06;7.97;;;1.90;;
52266;SDS011;38223;50.940;4.034;2023-09-19T15:14:34;6.65;;;1.70;;
52266;SDS011;38223;50.940;4.034;2023-09-19T15:17:03;4.50;;;1.47;;
52266;SDS011;38223;50.940;4.034;2023-09-19T15:19:30;10.68;;;1.87;;
52266;SDS011;38223;50.940;4.034;2023-09-19T15:21:58;5.08;;;1.67;;
52266;SDS011;38223;50.940;4.034;2023-09-19T15:24:27;9.38;;;1.35;;
52266;SDS011;38223;50.940;4.034;2023-09-19T15:26:55;5.30;;;2.17;;
52266;SDS011;38223;50.940;4.034;2023-09-19T15:29:26;8.73;;;2.05;;
52266;SDS011;38223;50.940;4.034;2023-09-19T15:32:14;4.60;;;1.85;;
52266;SDS011;38223;50.940;4.034;2023-09-19T15:34:42;10.15;;;1.95;;
52266;SDS011;38223;50.940;4.034;2023-09-19T15:37:10;7.00;;;1.90;;
52266;SDS011;38223;50.940;4.034;2023-09-19T15:39:42;5.47;;;1.85;;
52266;SDS011;38223;50.940;4.034;2023-09-19T15:42:12;7.75;;;1.80;;
52266;SDS011;38223;50.940;4.034;2023-09-19T15:47:10;6.87;;;1.72;;
52266;SDS011;38223;50.940;4.034;2023-09-19T15:49:40;8.80;;;1.95;;
52266;SDS011;38223;50.940;4.034;2023-09-19T15:52:12;10.80;;;1.98;;
52266;SDS011;38223;50.940;4.034;2023-09-19T15:54:42;5.50;;;1.57;;
52266;SDS011;38223;50.940;4.034;2023-09-19T15:57:11;7.28;;;1.75;;
52266;SDS011;38223;50.940;4.034;2023-09-19T15:59:39;6.80;;;1.50;;
52266;SDS011;38223;50.940;4.034;2023-09-19T16:02:08;5.45;;;1.60;;
52266;SDS011;38223;50.940;4.034;2023-09-19T16:07:05;5.28;;;1.87;;
52266;SDS011;38223;50.940;4.034;2023-09-19T16:09:37;9.33;;;1.77;;
52266;SDS011;38223;50.940;4.034;2023-09-19T16:12:07;5.72;;;2.08;;